General Aviation Weather

Text Reports

Enter one or more of the following location identifiers separated by a space:

Zip Code, Four-Character ICAO or Three-Character IATA airport codes.

METAR - Aviation Routine Weather Report
KRAL - Riverside, California
Updated at 6:53 AM GMT on July 01, 2015 (11:53 PM PDT):
METAR KRAL 010653Z AUTO 27004KT 10SM CLR 26/12 A2987 RMK AO2 SLP095 T02610122
TAF - Terminal Area Forecast
KRAL - Riverside, California
Updated at 6:53 AM GMT on July 01, 2015 (11:53 PM PDT):
No TAF is currently available for this location.
Decoded:
No decoded TAF is available.
PIREP - Pilot Weather Report
KRAL - Riverside, California
Updated at 6:53 AM GMT on July 01, 2015 (11:53 PM PDT):
No PIREP is currently available for this location.
AIRMET - Airmens Meteorological Information
KRAL - Riverside, California
Updated at 6:53 AM GMT on July 01, 2015 (11:53 PM PDT):
No AIRMET is currently available for this location.
SIGMET - Significant Meteorological Information
KRAL - Riverside, California
Updated at 6:53 AM GMT on July 01, 2015 (11:53 PM PDT):
No SIGMET is currently available for this location.
NOTAM - Notice to Airmen
KRAL - Riverside, California
Updated at 6:53 AM GMT on July 01, 2015 (11:53 PM PDT):
No NOTAM is currently available for this location.
Forecast Area
KRAL - Riverside, California
Updated at 6:53 AM GMT on July 01, 2015 (11:53 PM PDT):
No NOTAM is currently available for this location.
Aviation Weather Maps